createdAt,value
2023-01-17T00:07:52.644Z,978.57
2023-01-17T00:17:59.840Z,978.48
2023-01-17T00:28:06.958Z,978.45
2023-01-17T00:38:13.772Z,978.35
2023-01-17T00:48:20.948Z,978.23
2023-01-17T00:58:28.045Z,978.19
2023-01-17T01:08:35.290Z,978.23
2023-01-17T01:18:42.250Z,978.13
2023-01-17T01:28:49.442Z,978.07
2023-01-17T01:38:56.254Z,978.02
2023-01-17T01:49:03.329Z,977.94
2023-01-17T01:59:10.413Z,977.90
2023-01-17T02:09:17.411Z,977.75
2023-01-17T02:19:24.337Z,977.79
2023-01-17T02:29:31.267Z,977.75
2023-01-17T02:39:38.329Z,977.69
2023-01-17T02:49:45.474Z,977.72
2023-01-17T02:59:52.397Z,977.81
2023-01-17T03:09:59.434Z,977.84
2023-01-17T03:20:06.538Z,977.80
2023-01-17T03:30:14.171Z,977.79
2023-01-17T03:40:20.746Z,977.80
2023-01-17T03:50:28.069Z,977.81
2023-01-17T04:00:35.056Z,977.83
2023-01-17T04:10:42.198Z,978.00
2023-01-17T04:20:49.248Z,977.99
2023-01-17T04:30:56.345Z,978.09
2023-01-17T04:41:03.498Z,978.16
2023-01-17T04:51:10.230Z,978.21
2023-01-17T05:01:17.505Z,978.39
2023-01-17T05:11:25.267Z,978.49
2023-01-17T05:21:32.121Z,978.51
2023-01-17T05:31:39.091Z,978.69
2023-01-17T05:41:46.211Z,979.00
2023-01-17T05:51:54.939Z,979.01
2023-01-17T06:02:02.867Z,979.30
2023-01-17T06:12:10.187Z,979.48
2023-01-17T06:22:17.523Z,979.54
2023-01-17T06:32:24.504Z,979.57
2023-01-17T06:42:31.409Z,979.67
2023-01-17T06:52:38.582Z,979.86
2023-01-17T07:02:46.750Z,980.01
2023-01-17T07:12:53.508Z,980.19
2023-01-17T07:23:01.219Z,980.11
2023-01-17T07:33:09.000Z,980.19
2023-01-17T07:43:15.597Z,980.29
2023-01-17T07:53:22.811Z,980.32
2023-01-17T08:03:29.774Z,980.45
2023-01-17T08:13:37.106Z,980.52
2023-01-17T08:23:44.014Z,980.67
2023-01-17T08:33:51.138Z,980.86
2023-01-17T08:43:57.279Z,981.01
2023-01-17T08:54:05.301Z,981.20
2023-01-17T09:04:12.331Z,981.28
2023-01-17T09:14:19.102Z,981.29
2023-01-17T09:24:26.306Z,981.45
2023-01-17T09:34:33.477Z,981.81
2023-01-17T09:44:41.135Z,981.90
2023-01-17T09:54:48.032Z,982.00
2023-01-17T10:04:55.408Z,982.25
2023-01-17T10:15:02.513Z,982.42
2023-01-17T10:25:09.440Z,982.48
2023-01-17T10:35:16.482Z,982.72
2023-01-17T10:45:23.869Z,982.83
2023-01-17T10:55:31.535Z,982.86
2023-01-17T11:05:38.624Z,982.96
2023-01-17T11:15:45.449Z,983.19
2023-01-17T11:25:52.677Z,983.35
2023-01-17T11:36:00.116Z,983.54
2023-01-17T11:46:07.122Z,983.50
2023-01-17T11:56:14.597Z,983.56
2023-01-17T12:06:21.805Z,983.51
2023-01-17T12:16:29.236Z,983.55
2023-01-17T12:26:36.270Z,983.66
2023-01-17T12:36:42.897Z,983.85
2023-01-17T12:46:50.209Z,984.01
2023-01-17T12:56:59.956Z,984.08
2023-01-17T13:07:06.988Z,984.20
2023-01-17T13:17:14.364Z,984.29
2023-01-17T13:27:21.590Z,984.38
2023-01-17T13:37:29.166Z,984.48
2023-01-17T13:47:35.121Z,984.72
2023-01-17T13:57:42.337Z,984.85
2023-01-17T14:07:49.522Z,984.83
2023-01-17T14:17:56.749Z,985.04
2023-01-17T14:28:03.500Z,985.29
2023-01-17T14:38:10.619Z,985.46
2023-01-17T14:48:17.538Z,985.55
2023-01-17T14:58:24.978Z,985.67
2023-01-17T15:08:31.951Z,985.62
2023-01-17T15:18:38.465Z,985.80
2023-01-17T15:28:46.059Z,985.85
2023-01-17T15:38:52.675Z,985.99
2023-01-17T15:48:58.723Z,985.98
2023-01-17T15:59:05.070Z,986.16
2023-01-17T16:09:11.965Z,986.07
2023-01-17T16:19:19.347Z,986.29
2023-01-17T16:29:26.167Z,986.29
2023-01-17T16:39:33.383Z,986.30
2023-01-17T16:49:40.380Z,986.36
2023-01-17T16:59:50.867Z,986.45
2023-01-17T17:09:58.776Z,986.51
2023-01-17T17:20:05.322Z,986.59
2023-01-17T17:30:12.335Z,986.61
2023-01-17T17:40:19.411Z,986.85
2023-01-17T17:50:25.718Z,986.86
2023-01-17T18:00:32.708Z,986.98
2023-01-17T18:10:39.713Z,987.05
2023-01-17T18:20:46.574Z,986.98
2023-01-17T18:30:53.397Z,987.09
2023-01-17T18:41:00.635Z,987.10
2023-01-17T18:51:07.519Z,987.13
2023-01-17T19:01:14.637Z,987.19
2023-01-17T19:11:21.550Z,987.22
2023-01-17T19:21:27.865Z,987.33
2023-01-17T19:31:34.990Z,987.38
2023-01-17T19:41:41.937Z,987.41
2023-01-17T19:51:48.861Z,987.51
2023-01-17T20:01:56.308Z,987.52
2023-01-17T20:12:03.478Z,987.59
2023-01-17T20:22:10.031Z,987.53
2023-01-17T20:32:17.053Z,987.57
2023-01-17T20:42:24.585Z,987.63
2023-01-17T20:52:31.157Z,987.81
2023-01-17T21:02:38.605Z,987.96
2023-01-17T21:12:46.175Z,988.23
2023-01-17T21:22:53.503Z,988.46
2023-01-17T21:33:00.462Z,988.59
2023-01-17T21:43:07.703Z,988.73
2023-01-17T21:53:14.470Z,988.80
2023-01-17T22:03:21.297Z,988.91
2023-01-17T22:13:28.570Z,988.95
2023-01-17T22:23:35.647Z,989.02
2023-01-17T22:33:42.490Z,989.08
2023-01-17T22:43:49.974Z,988.96
2023-01-17T22:53:58.043Z,988.87
2023-01-17T23:04:04.867Z,988.79
2023-01-17T23:14:12.208Z,988.83
2023-01-17T23:24:19.400Z,988.66
2023-01-17T23:34:25.984Z,988.55
2023-01-17T23:44:32.873Z,988.44
2023-01-17T23:54:40.166Z,988.37
